Time;durP1;ratioP1;P1;durP2;ratioP2;P2;SDS_P1;SDS_P2;PMS_P1;PMS_P2;Temp;Humidity;BMP_temperature;BMP_pressure;BME280_temperature;BME280_humidity;BME280_pressure;Samples;Min_cycle;Max_cycle;Signal;HPM_P1;HPM_P2
2023/10/10 00:00:23;;;;;;;3.53;3.20;;;;;;;;;;5015899;28;20037;-30
2023/10/10 00:02:51;;;;;;;5.38;2.90;;;;;;;;;;5015483;28;20457;-34
2023/10/10 00:05:18;;;;;;;4.88;2.97;;;;;;;;;;5015751;28;20046;-29
2023/10/10 00:07:44;;;;;;;3.30;3.00;;;;;;;;;;5015426;28;20065;-29
2023/10/10 00:10:13;;;;;;;5.60;3.70;;;;;;;;;;5015720;28;20482;-28
2023/10/10 00:12:40;;;;;;;2.90;2.70;;;;;;;;;;5015370;28;20449;-28
2023/10/10 00:15:13;;;;;;;9.43;3.55;;;;;;;;;;5015248;28;20030;-27
2023/10/10 00:17:41;;;;;;;4.40;3.47;;;;;;;;;;5015604;28;20121;-31
2023/10/10 00:20:22;;;;;;;3.75;2.70;;;;;;;;;;5016073;28;20452;-29
2023/10/10 00:22:49;;;;;;;4.88;2.90;;;;;;;;;;5015474;28;20041;-30
2023/10/10 00:25:20;;;;;;;3.83;2.75;;;;;;;;;;5015133;28;20037;-26
2023/10/10 00:27:48;;;;;;;5.05;3.03;;;;;;;;;;5015496;28;20389;-27
2023/10/10 00:30:14;;;;;;;3.22;2.92;;;;;;;;;;5015364;28;20345;-29
2023/10/10 00:32:42;;;;;;;2.95;2.58;;;;;;;;;;5015137;28;20034;-27
2023/10/10 00:35:12;;;;;;;4.00;3.25;;;;;;;;;;5015301;28;20047;-31
2023/10/10 00:37:38;;;;;;;3.17;2.97;;;;;;;;;;5015124;28;20091;-27
2023/10/10 00:40:09;;;;;;;5.10;2.85;;;;;;;;;;5014973;28;20018;-29
2023/10/10 00:42:37;;;;;;;2.90;2.45;;;;;;;;;;5015111;28;20053;-30
2023/10/10 00:45:09;;;;;;;3.47;3.17;;;;;;;;;;5014885;28;20034;-29
2023/10/10 00:47:40;;;;;;;4.07;3.25;;;;;;;;;;5015173;28;20041;-31
2023/10/10 00:50:16;;;;;;;3.58;2.58;;;;;;;;;;5015126;28;20353;-28
2023/10/10 00:53:00;;;;;;;3.67;2.97;;;;;;;;;;4997448;28;20048;-26
2023/10/10 00:55:33;;;;;;;3.85;2.70;;;;;;;;;;5014833;28;20022;-29
2023/10/10 00:58:00;;;;;;;2.63;2.40;;;;;;;;;;5014832;28;20484;-27
2023/10/10 01:00:29;;;;;;;3.35;2.72;;;;;;;;;;5014757;28;20018;-27
2023/10/10 01:03:00;;;;;;;9.45;3.38;;;;;;;;;;5014501;28;20032;-31
2023/10/10 01:05:39;;;;;;;4.50;2.70;;;;;;;;;;5014747;28;20137;-29
2023/10/10 01:08:07;;;;;;;3.15;2.95;;;;;;;;;;5014707;28;20499;-28
2023/10/10 01:10:42;;;;;;;4.32;2.42;;;;;;;;;;5014615;28;20472;-28
2023/10/10 01:13:10;;;;;;;4.40;2.38;;;;;;;;;;5014531;28;20053;-29
2023/10/10 01:15:36;;;;;;;4.38;3.08;;;;;;;;;;4997749;28;20022;-28
2023/10/10 01:18:03;;;;;;;3.05;2.67;;;;;;;;;;5014615;28;20453;-30
2023/10/10 01:20:45;;;;;;;2.60;2.40;;;;;;;;;;5014573;28;20030;-29
2023/10/10 01:23:12;;;;;;;2.75;2.53;;;;;;;;;;5014575;28;20513;-29
2023/10/10 01:28:13;;;;;;;3.03;2.72;;;;;;;;;;5014556;28;20439;-32
2023/10/10 01:36:40;;;;;;;2.70;2.42;;;;;;;;;;5014817;28;20100;-30
2023/10/10 01:38:59;;;;;;;3.75;2.83;;;;;;;;;;5011645;28;20054;-31
2023/10/10 01:41:38;;;;;;;3.55;2.60;;;;;;;;;;5014399;28;20036;-30
2023/10/10 01:46:36;;;;;;;3.38;2.75;;;;;;;;;;5014432;28;20495;-28
2023/10/10 01:49:05;;;;;;;3.35;2.80;;;;;;;;;;5014612;28;20416;-27
2023/10/10 01:51:42;;;;;;;2.58;2.38;;;;;;;;;;5014288;28;20021;-29
2023/10/10 01:54:18;;;;;;;2.72;2.50;;;;;;;;;;5014271;28;20061;-29
2023/10/10 01:56:44;;;;;;;3.25;2.95;;;;;;;;;;5014236;28;20037;-32
2023/10/10 01:59:18;;;;;;;2.58;2.38;;;;;;;;;;5014514;28;20076;-29
2023/10/10 02:01:45;;;;;;;2.85;2.65;;;;;;;;;;5015127;28;20045;-29
2023/10/10 02:04:11;;;;;;;2.25;2.08;;;;;;;;;;5017563;28;20054;-25
2023/10/10 02:06:40;;;;;;;3.63;2.60;;;;;;;;;;5017641;28;20034;-26
2023/10/10 02:09:27;;;;;;;2.83;2.55;;;;;;;;;;5017638;28;20369;-31
2023/10/10 02:12:04;;;;;;;2.45;1.85;;;;;;;;;;5000177;28;20477;-28
2023/10/10 02:14:30;;;;;;;7.65;2.92;;;;;;;;;;5017604;28;20361;-30
2023/10/10 02:17:06;;;;;;;3.40;2.25;;;;;;;;;;5017556;28;20330;-28
2023/10/10 02:19:39;;;;;;;3.17;2.78;;;;;;;;;;5017781;28;20080;-26
2023/10/10 02:22:33;;;;;;;2.83;2.60;;;;;;;;;;5017330;28;20100;-30
2023/10/10 02:25:46;;;;;;;4.40;2.63;;;;;;;;;;5017725;28;20116;-28
2023/10/10 02:27:55;;;;;;;3.67;2.63;;;;;;;;;;5009190;28;20527;-27
2023/10/10 02:35:56;;;;;;;2.72;2.30;;;;;;;;;;5017500;28;20037;-31
2023/10/10 02:38:23;;;;;;;4.03;2.35;;;;;;;;;;5017101;28;20041;-28
2023/10/10 02:40:55;;;;;;;2.67;2.28;;;;;;;;;;5017047;28;20028;-30
2023/10/10 02:43:45;;;;;;;2.45;2.22;;;;;;;;;;5016947;28;20029;-29
2023/10/10 02:46:13;;;;;;;4.40;2.97;;;;;;;;;;5017267;28;20093;-30
2023/10/10 02:48:42;;;;;;;3.00;2.70;;;;;;;;;;5017478;28;20341;-31
2023/10/10 02:51:08;;;;;;;2.75;2.42;;;;;;;;;;5016783;28;20061;-26
2023/10/10 02:53:34;;;;;;;2.90;2.60;;;;;;;;;;5016805;28;20121;-29
2023/10/10 02:56:01;;;;;;;2.55;2.30;;;;;;;;;;5017324;28;20057;-30
2023/10/10 02:58:37;;;;;;;2.63;2.45;;;;;;;;;;5016976;28;20467;-32
2023/10/10 03:01:09;;;;;;;3.35;3.05;;;;;;;;;;5016753;28;20014;-29
2023/10/10 03:03:40;;;;;;;2.60;2.40;;;;;;;;;;5016495;28;20044;-27
2023/10/10 03:06:07;;;;;;;5.20;2.60;;;;;;;;;;5016889;28;20025;-30
2023/10/10 03:11:02;;;;;;;2.42;2.25;;;;;;;;;;5016818;28;20441;-29
2023/10/10 03:13:36;;;;;;;2.80;2.45;;;;;;;;;;5015396;28;20463;-28
2023/10/10 03:24:51;;;;;;;2.72;1.80;;;;;;;;;;5016572;28;20384;-26
2023/10/10 03:29:49;;;;;;;2.05;1.85;;;;;;;;;;4985902;28;20127;-28
2023/10/10 03:32:21;;;;;;;3.78;2.65;;;;;;;;;;5015953;28;20037;-31
2023/10/10 03:34:57;;;;;;;2.28;2.08;;;;;;;;;;4998820;28;20474;-28
2023/10/10 05:24:27;;;;;;;4.20;2.78;;;;;;;;;;5014554;28;20041;-31
2023/10/10 05:26:56;;;;;;;2.55;2.30;;;;;;;;;;5014742;28;20026;-30
2023/10/10 05:29:24;;;;;;;3.75;2.40;;;;;;;;;;4997309;28;20034;-28
2023/10/10 05:31:56;;;;;;;3.20;1.95;;;;;;;;;;5015434;28;20030;-32
2023/10/10 05:34:23;;;;;;;2.05;1.90;;;;;;;;;;5015195;28;20036;-32
2023/10/10 05:36:49;;;;;;;5.20;2.10;;;;;;;;;;5014502;28;20393;-29
2023/10/10 05:39:20;;;;;;;5.00;2.28;;;;;;;;;;5018333;28;20026;-30
2023/10/10 05:41:47;;;;;;;6.15;2.47;;;;;;;;;;5018232;28;20026;-27
2023/10/10 05:44:16;;;;;;;3.50;2.47;;;;;;;;;;5017897;28;20151;-29
2023/10/10 05:46:42;;;;;;;2.83;2.38;;;;;;;;;;5017830;28;20036;-31
2023/10/10 05:49:08;;;;;;;2.95;1.92;;;;;;;;;;5018336;28;20029;-30
2023/10/10 05:51:35;;;;;;;2.25;2.00;;;;;;;;;;5017739;28;20037;-24
2023/10/10 05:54:01;;;;;;;2.35;2.15;;;;;;;;;;5017683;28;20025;-24
2023/10/10 05:56:29;;;;;;;4.10;2.28;;;;;;;;;;5017666;28;20105;-30
2023/10/10 05:58:56;;;;;;;5.25;2.25;;;;;;;;;;5017700;28;20026;-31
2023/10/10 06:01:23;;;;;;;16.42;2.17;;;;;;;;;;5017882;28;20030;-28
2023/10/10 06:03:51;;;;;;;5.13;2.30;;;;;;;;;;5017238;28;20053;-31
2023/10/10 06:06:18;;;;;;;2.90;2.03;;;;;;;;;;5017823;28;20036;-33
2023/10/10 06:08:44;;;;;;;4.70;2.47;;;;;;;;;;5017737;28;20018;-27
2023/10/10 06:11:13;;;;;;;3.75;2.20;;;;;;;;;;5017454;28;20461;-31
2023/10/10 06:13:40;;;;;;;4.90;3.70;;;;;;;;;;5017274;28;20034;-30
2023/10/10 06:16:12;;;;;;;2.67;2.10;;;;;;;;;;5017329;28;20029;-28
2023/10/10 06:18:42;;;;;;;3.45;2.65;;;;;;;;;;5017346;28;20096;-31
2023/10/10 06:21:09;;;;;;;7.18;3.00;;;;;;;;;;5017493;28;20037;-26
2023/10/10 06:23:35;;;;;;;5.00;2.75;;;;;;;;;;5017399;28;20106;-25
2023/10/10 06:26:02;;;;;;;6.38;2.42;;;;;;;;;;5017245;28;20025;-30
2023/10/10 06:28:35;;;;;;;6.55;2.65;;;;;;;;;;5017150;28;20050;-28
2023/10/10 06:31:02;;;;;;;4.65;2.30;;;;;;;;;;5017405;28;20029;-28
2023/10/10 06:33:28;;;;;;;4.13;2.33;;;;;;;;;;5017092;28;20022;-27
2023/10/10 06:41:42;;;;;;;4.50;2.08;;;;;;;;;;5016934;28;20469;-28
2023/10/10 06:44:14;;;;;;;3.63;2.60;;;;;;;;;;5016755;28;20445;-32
2023/10/10 06:46:41;;;;;;;6.45;2.20;;;;;;;;;;5017038;28;20048;-28
2023/10/10 06:49:12;;;;;;;4.10;2.35;;;;;;;;;;5016591;28;20125;-29
2023/10/10 06:51:41;;;;;;;4.03;2.17;;;;;;;;;;5016810;28;20041;-31
2023/10/10 06:54:27;;;;;;;9.32;2.65;;;;;;;;;;5017360;28;20021;-28
2023/10/10 06:59:29;;;;;;;3.08;2.30;;;;;;;;;;5016543;28;20033;-26
2023/10/10 07:02:13;;;;;;;5.18;2.05;;;;;;;;;;5016476;28;20034;-30
2023/10/10 07:04:40;;;;;;;3.65;2.42;;;;;;;;;;5016450;28;20037;-30
2023/10/10 07:07:18;;;;;;;5.13;2.03;;;;;;;;;;5016438;28;20033;-29
2023/10/10 07:09:44;;;;;;;6.75;2.45;;;;;;;;;;5016607;28;20025;-27
2023/10/10 07:12:11;;;;;;;7.55;2.42;;;;;;;;;;4998940;28;20029;-27
2023/10/10 07:14:40;;;;;;;8.40;3.92;;;;;;;;;;5016263;28;20430;-28
2023/10/10 07:17:11;;;;;;;5.65;2.75;;;;;;;;;;5016156;28;20209;-28
2023/10/10 07:22:26;;;;;;;3.53;2.17;;;;;;;;;;5016646;28;20060;-29
2023/10/10 07:25:06;;;;;;;7.40;2.35;;;;;;;;;;5016103;28;20030;-30
2023/10/10 07:27:32;;;;;;;7.80;3.50;;;;;;;;;;5016244;28;20132;-27
2023/10/10 07:29:58;;;;;;;8.55;2.50;;;;;;;;;;5015666;28;20036;-27
2023/10/10 07:32:29;;;;;;;14.77;4.05;;;;;;;;;;5015796;28;20022;-29
2023/10/10 07:34:55;;;;;;;8.25;3.72;;;;;;;;;;5016138;28;20030;-35
2023/10/10 07:37:29;;;;;;;4.28;2.28;;;;;;;;;;5016776;28;20335;-29
2023/10/10 07:39:55;;;;;;;7.72;2.53;;;;;;;;;;5016404;28;20022;-29
2023/10/10 07:42:29;;;;;;;4.50;3.05;;;;;;;;;;5015862;28;20053;-29
2023/10/10 07:44:59;;;;;;;3.88;2.15;;;;;;;;;;5015924;28;20383;-29
2023/10/10 07:47:29;;;;;;;6.10;2.97;;;;;;;;;;5015740;28;20029;-32
2023/10/10 07:49:56;;;;;;;6.13;3.00;;;;;;;;;;5015501;28;20100;-30
2023/10/10 07:52:22;;;;;;;4.13;3.00;;;;;;;;;;5015433;28;20057;-26
2023/10/10 07:54:53;;;;;;;9.70;4.30;;;;;;;;;;5015393;28;20454;-30
2023/10/10 07:57:25;;;;;;;6.68;2.55;;;;;;;;;;5015503;28;20099;-28
2023/10/10 07:59:58;;;;;;;4.30;2.25;;;;;;;;;;5015029;28;20370;-31
2023/10/10 08:02:25;;;;;;;7.05;2.92;;;;;;;;;;5015898;28;20099;-28
2023/10/10 08:04:52;;;;;;;7.07;2.90;;;;;;;;;;5015507;28;20054;-30
2023/10/10 08:07:18;;;;;;;6.20;2.92;;;;;;;;;;5015175;28;20124;-29
2023/10/10 08:09:48;;;;;;;6.65;3.65;;;;;;;;;;5015237;28;20029;-28
2023/10/10 08:12:15;;;;;;;13.90;4.60;;;;;;;;;;5014934;28;20037;-31
2023/10/10 08:14:42;;;;;;;7.50;2.75;;;;;;;;;;5015098;28;20032;-28
2023/10/10 08:17:18;;;;;;;5.72;2.78;;;;;;;;;;5015371;28;20022;-28
2023/10/10 08:19:51;;;;;;;4.68;2.40;;;;;;;;;;5015332;28;20033;-30
2023/10/10 08:22:19;;;;;;;6.80;2.53;;;;;;;;;;5015355;28;20057;-29
2023/10/10 08:24:46;;;;;;;6.53;2.40;;;;;;;;;;5014935;28;20036;-28
2023/10/10 08:27:12;;;;;;;3.70;2.63;;;;;;;;;;5014872;28;20058;-29
2023/10/10 08:29:40;;;;;;;7.25;2.65;;;;;;;;;;5015149;28;20026;-29
2023/10/10 08:32:06;;;;;;;6.53;2.97;;;;;;;;;;5015241;28;20076;-26
2023/10/10 08:34:38;;;;;;;5.80;1.98;;;;;;;;;;5014798;28;20088;-28
2023/10/10 08:37:04;;;;;;;4.88;2.85;;;;;;;;;;5014820;28;20022;-29
2023/10/10 08:39:36;;;;;;;5.32;2.22;;;;;;;;;;4997481;28;20361;-27
2023/10/10 08:42:10;;;;;;;7.40;2.55;;;;;;;;;;5014961;28;20034;-29
2023/10/10 08:44:38;;;;;;;9.82;2.58;;;;;;;;;;5014703;28;20025;-32
2023/10/10 08:47:06;;;;;;;6.25;2.97;;;;;;;;;;5014722;28;20026;-35
2023/10/10 08:49:32;;;;;;;11.25;3.65;;;;;;;;;;5015141;28;20030;-31
2023/10/10 08:52:02;;;;;;;4.47;2.78;;;;;;;;;;5014353;28;20033;-30
2023/10/10 08:54:29;;;;;;;9.55;3.20;;;;;;;;;;5014824;28;20121;-31
2023/10/10 08:57:10;;;;;;;6.82;2.55;;;;;;;;;;5014515;28;20075;-25
2023/10/10 08:59:42;;;;;;;12.43;2.90;;;;;;;;;;5014638;28;20459;-25
2023/10/10 09:02:19;;;;;;;7.97;3.30;;;;;;;;;;5014692;28;20384;-28
2023/10/10 09:04:46;;;;;;;6.35;2.35;;;;;;;;;;5014389;28;20046;-27
2023/10/10 09:07:27;;;;;;;5.35;3.25;;;;;;;;;;5014419;28;20040;-30
2023/10/10 09:10:13;;;;;;;5.47;1.95;;;;;;;;;;5014452;28;20029;-33
2023/10/10 09:12:55;;;;;;;6.35;2.97;;;;;;;;;;5017774;28;20040;-31
2023/10/10 09:15:22;;;;;;;5.38;3.08;;;;;;;;;;5018589;28;20029;-32
2023/10/10 09:17:48;;;;;;;10.07;2.92;;;;;;;;;;5018357;28;20037;-30
2023/10/10 09:20:27;;;;;;;6.68;2.92;;;;;;;;;;5018405;28;20029;-31
2023/10/10 09:22:54;;;;;;;10.40;2.97;;;;;;;;;;5018573;28;20041;-30
2023/10/10 09:25:25;;;;;;;12.65;3.85;;;;;;;;;;5019116;28;20057;-28
2023/10/10 09:28:00;;;;;;;7.57;3.33;;;;;;;;;;5018237;28;20147;-28
2023/10/10 09:30:40;;;;;;;4.05;2.67;;;;;;;;;;5018204;28;20133;-29
2023/10/10 09:33:13;;;;;;;7.63;2.78;;;;;;;;;;5018557;28;20465;-31
2023/10/10 09:35:48;;;;;;;4.63;2.65;;;;;;;;;;5018484;28;20101;-29
2023/10/10 09:38:20;;;;;;;10.93;3.33;;;;;;;;;;5018138;28;20449;-29
2023/10/10 09:40:48;;;;;;;13.23;2.60;;;;;;;;;;5018362;28;20033;-28
2023/10/10 09:43:35;;;;;;;11.57;2.50;;;;;;;;;;5018135;28;20348;-28
2023/10/10 09:46:18;;;;;;;8.70;3.55;;;;;;;;;;5017942;28;20041;-28
2023/10/10 09:52:49;;;;;;;7.30;3.05;;;;;;;;;;5018028;28;20038;-27
2023/10/10 09:54:17;;;;;;;8.90;3.35;;;;;;;;;;5017646;28;20030;-30
2023/10/10 09:56:56;;;;;;;5.75;2.83;;;;;;;;;;5017689;28;20087;-28
2023/10/10 09:59:28;;;;;;;7.72;2.67;;;;;;;;;;5002219;28;20041;-30
2023/10/10 10:02:00;;;;;;;7.25;2.92;;;;;;;;;;5017906;28;20440;-34
2023/10/10 10:04:36;;;;;;;7.07;3.33;;;;;;;;;;5017220;28;20180;-29
2023/10/10 10:07:15;;;;;;;6.85;2.80;;;;;;;;;;5017593;28;20113;-31
2023/10/10 10:09:45;;;;;;;7.65;3.60;;;;;;;;;;5017839;28;20471;-26
2023/10/10 10:12:19;;;;;;;6.57;2.83;;;;;;;;;;5017375;28;20125;-31
2023/10/10 10:14:56;;;;;;;9.65;3.70;;;;;;;;;;5017411;28;20030;-29
2023/10/10 10:17:54;;;;;;;8.20;3.63;;;;;;;;;;5017751;28;20026;-24
2023/10/10 10:20:33;;;;;;;6.78;2.80;;;;;;;;;;5017911;28;20018;-28
2023/10/10 10:23:00;;;;;;;14.05;3.53;;;;;;;;;;5016564;28;20040;-30
2023/10/10 10:25:32;;;;;;;7.60;3.35;;;;;;;;;;5017251;28;20464;-28
2023/10/10 10:28:10;;;;;;;16.83;3.50;;;;;;;;;;5017726;28;20515;-32
2023/10/10 10:30:47;;;;;;;11.82;3.33;;;;;;;;;;5017111;28;20087;-26
2023/10/10 10:33:14;;;;;;;8.90;3.83;;;;;;;;;;5017122;28;20038;-31
2023/10/10 10:35:56;;;;;;;8.05;2.78;;;;;;;;;;5017170;28;20022;-26
2023/10/10 10:38:26;;;;;;;12.45;3.53;;;;;;;;;;4999705;28;20033;-27
2023/10/10 10:41:04;;;;;;;10.40;4.10;;;;;;;;;;5016922;28;20041;-27
2023/10/10 10:43:38;;;;;;;8.73;3.20;;;;;;;;;;5016868;28;20046;-25
2023/10/10 10:46:15;;;;;;;7.13;3.55;;;;;;;;;;5017101;28;20053;-29
2023/10/10 10:48:47;;;;;;;10.43;3.67;;;;;;;;;;5017045;28;20048;-27
2023/10/10 10:51:26;;;;;;;10.27;3.97;;;;;;;;;;5016809;28;20061;-28
2023/10/10 10:53:59;;;;;;;14.18;3.33;;;;;;;;;;4999421;28;20037;-30
2023/10/10 10:59:19;;;;;;;14.27;3.63;;;;;;;;;;5016642;28;20029;-27
2023/10/10 11:01:57;;;;;;;5.88;3.35;;;;;;;;;;5016799;28;20084;-27
2023/10/10 11:07:05;;;;;;;6.97;3.05;;;;;;;;;;5016498;28;20352;-25
2023/10/10 11:09:34;;;;;;;9.48;4.55;;;;;;;;;;5016480;28;20368;-31
2023/10/10 11:12:03;;;;;;;8.23;3.75;;;;;;;;;;5016745;28;20113;-31
2023/10/10 11:14:33;;;;;;;10.02;3.80;;;;;;;;;;5016310;28;20018;-29
2023/10/10 11:16:59;;;;;;;5.03;3.28;;;;;;;;;;5016214;28;20018;-35
2023/10/10 11:21:57;;;;;;;12.70;4.93;;;;;;;;;;5016416;28;20057;-30
2023/10/10 11:24:24;;;;;;;7.63;3.45;;;;;;;;;;5016199;28;20057;-30
2023/10/10 11:27:07;;;;;;;9.38;3.17;;;;;;;;;;5016100;28;20049;-33
2023/10/10 11:29:50;;;;;;;11.43;3.60;;;;;;;;;;4999301;28;20330;-29
2023/10/10 11:32:23;;;;;;;7.25;3.40;;;;;;;;;;5015821;28;20025;-29
2023/10/10 11:34:50;;;;;;;4.43;3.47;;;;;;;;;;5015220;28;20037;-27
2023/10/10 11:37:25;;;;;;;6.72;3.10;;;;;;;;;;5015796;28;20033;-27
2023/10/10 11:39:57;;;;;;;5.05;3.70;;;;;;;;;;4998476;28;20032;-28
2023/10/10 11:42:26;;;;;;;8.05;3.33;;;;;;;;;;5015916;28;20030;-30
2023/10/10 11:44:53;;;;;;;4.78;3.40;;;;;;;;;;5015824;28;20026;-27
2023/10/10 11:47:26;;;;;;;6.47;2.95;;;;;;;;;;5016444;28;20104;-27
2023/10/10 11:50:00;;;;;;;8.88;4.20;;;;;;;;;;5015979;28;20555;-28
2023/10/10 11:52:27;;;;;;;5.07;3.40;;;;;;;;;;5015779;28;20368;-28
2023/10/10 11:54:58;;;;;;;6.13;3.38;;;;;;;;;;5015711;28;20091;-25
2023/10/10 11:57:28;;;;;;;7.80;3.63;;;;;;;;;;5015653;28;20056;-28
2023/10/10 11:59:55;;;;;;;8.35;3.20;;;;;;;;;;5015778;28;20084;-30
2023/10/10 12:02:29;;;;;;;6.60;3.38;;;;;;;;;;5015344;28;20037;-31
2023/10/10 12:04:56;;;;;;;11.48;3.55;;;;;;;;;;5015230;28;20065;-30
2023/10/10 12:07:24;;;;;;;7.20;3.70;;;;;;;;;;5015237;28;20105;-28
2023/10/10 12:10:07;;;;;;;8.93;3.75;;;;;;;;;;5015251;28;20480;-27
2023/10/10 12:12:33;;;;;;;5.80;3.40;;;;;;;;;;5015296;28;20445;-28
2023/10/10 12:15:00;;;;;;;7.75;4.10;;;;;;;;;;5015527;28;20091;-29
2023/10/10 12:17:28;;;;;;;5.20;3.45;;;;;;;;;;5015201;28;20112;-29
2023/10/10 12:19:56;;;;;;;8.52;3.28;;;;;;;;;;5015347;28;20469;-28
2023/10/10 12:22:23;;;;;;;8.10;3.70;;;;;;;;;;5015224;28;20049;-29
2023/10/10 12:24:50;;;;;;;7.85;3.90;;;;;;;;;;5015829;28;20033;-31
2023/10/10 12:27:16;;;;;;;6.25;3.03;;;;;;;;;;5015104;28;20037;-28
2023/10/10 12:29:47;;;;;;;14.00;4.10;;;;;;;;;;5015948;28;20088;-30
2023/10/10 12:32:18;;;;;;;;;;;;;;;;;;5015152;28;20033;-28
2023/10/10 12:34:48;;;;;;;10.70;3.97;;;;;;;;;;5015151;28;19905;-25
2023/10/10 12:37:17;;;;;;;8.35;4.25;;;;;;;;;;5014722;28;20057;-30
2023/10/10 12:39:44;;;;;;;11.90;3.53;;;;;;;;;;5014774;28;20112;-31
2023/10/10 12:42:10;;;;;;;6.95;4.57;;;;;;;;;;4998091;28;20026;-32
2023/10/10 12:44:36;;;;;;;12.07;3.20;;;;;;;;;;5015655;28;20072;-27
2023/10/10 12:47:06;;;;;;;5.68;3.75;;;;;;;;;;5014396;28;20033;-26
2023/10/10 12:49:37;;;;;;;8.55;4.07;;;;;;;;;;5015526;28;20030;-29
2023/10/10 12:52:11;;;;;;;;;;;;;;;;;;5015179;28;20045;-30
2023/10/10 12:54:38;;;;;;;8.95;3.92;;;;;;;;;;5014995;28;19901;-31
2023/10/10 12:57:13;;;;;;;9.18;3.65;;;;;;;;;;5014675;28;20026;-28
2023/10/10 12:59:39;;;;;;;4.38;3.03;;;;;;;;;;5014883;28;20109;-33
2023/10/10 13:02:08;;;;;;;7.72;3.50;;;;;;;;;;5014544;28;20026;-31
2023/10/10 13:04:36;;;;;;;8.80;3.63;;;;;;;;;;5014347;28;20145;-31
2023/10/10 13:07:03;;;;;;;5.88;3.55;;;;;;;;;;5014810;28;20080;-25
2023/10/10 13:09:30;;;;;;;8.90;4.03;;;;;;;;;;5014584;28;20041;-28
2023/10/10 13:12:02;;;;;;;5.05;3.00;;;;;;;;;;4997142;28;20030;-26
2023/10/10 13:14:32;;;;;;;8.73;3.70;;;;;;;;;;5014866;28;20053;-29
2023/10/10 13:17:50;;;;;;;7.97;4.35;;;;;;;;;;5015330;28;20097;-27
2023/10/10 13:19:48;;;;;;;12.43;3.70;;;;;;;;;;5006374;28;20037;-27
2023/10/10 13:22:20;;;;;;;10.90;3.28;;;;;;;;;;5014653;28;20030;-28
2023/10/10 13:24:47;;;;;;;11.10;4.22;;;;;;;;;;5014421;28;20022;-26
2023/10/10 13:27:14;;;;;;;10.20;4.15;;;;;;;;;;5014422;28;20025;-28
2023/10/10 13:29:40;;;;;;;7.63;4.07;;;;;;;;;;5014611;28;20061;-28
2023/10/10 13:32:06;;;;;;;11.20;4.30;;;;;;;;;;5014164;28;20050;-30
2023/10/10 13:34:37;;;;;;;9.57;3.72;;;;;;;;;;5014604;28;20523;-29
2023/10/10 13:37:07;;;;;;;10.50;4.37;;;;;;;;;;5014711;28;20060;-30
2023/10/10 13:39:42;;;;;;;7.30;4.10;;;;;;;;;;5014670;28;20365;-28
2023/10/10 13:42:08;;;;;;;15.00;4.63;;;;;;;;;;5014237;28;20767;-30
2023/10/10 13:44:35;;;;;;;6.93;3.53;;;;;;;;;;5014613;28;20032;-29
2023/10/10 13:47:01;;;;;;;15.18;3.83;;;;;;;;;;5014355;28;20025;-30
2023/10/10 13:49:27;;;;;;;7.32;3.90;;;;;;;;;;5014591;28;20064;-29
2023/10/10 13:51:54;;;;;;;4.78;4.20;;;;;;;;;;4996871;28;20365;-29
2023/10/10 13:54:20;;;;;;;8.98;4.72;;;;;;;;;;5014772;28;20160;-29
2023/10/10 13:56:46;;;;;;;14.52;3.83;;;;;;;;;;5014507;28;20037;-25
2023/10/10 13:59:14;;;;;;;4.97;3.45;;;;;;;;;;5016526;28;20045;-32
2023/10/10 14:01:41;;;;;;;9.27;3.55;;;;;;;;;;5018068;28;20018;-28
2023/10/10 14:04:23;;;;;;;7.40;4.47;;;;;;;;;;5017527;28;20053;-27
2023/10/10 14:06:49;;;;;;;7.88;3.63;;;;;;;;;;5017990;28;20085;-29
2023/10/10 14:12:20;;;;;;;11.43;5.30;;;;;;;;;;4984571;28;20559;-30
2023/10/10 14:14:46;;;;;;;10.77;4.20;;;;;;;;;;5017486;28;20029;-26
2023/10/10 14:17:12;;;;;;;12.95;3.65;;;;;;;;;;5017687;28;20112;-28
2023/10/10 14:19:39;;;;;;;10.30;3.45;;;;;;;;;;5017597;28;20361;-25
2023/10/10 14:22:10;;;;;;;10.65;4.15;;;;;;;;;;5017548;28;20030;-28
2023/10/10 14:24:36;;;;;;;9.77;4.00;;;;;;;;;;5017237;28;20084;-30
2023/10/10 14:27:02;;;;;;;5.90;4.05;;;;;;;;;;5017244;28;20365;-28
2023/10/10 14:29:40;;;;;;;7.82;3.45;;;;;;;;;;5017476;28;20045;-31
2023/10/10 14:32:10;;;;;;;7.35;3.53;;;;;;;;;;5017377;28;20034;-28
2023/10/10 14:34:38;;;;;;;8.43;3.88;;;;;;;;;;5017573;28;20021;-30
2023/10/10 14:37:04;;;;;;;13.77;5.85;;;;;;;;;;5017661;28;20018;-31
2023/10/10 14:39:44;;;;;;;12.05;3.95;;;;;;;;;;5017322;28;20053;-30
2023/10/10 14:42:11;;;;;;;15.20;4.35;;;;;;;;;;5017143;28;20028;-26
2023/10/10 14:44:40;;;;;;;6.63;3.70;;;;;;;;;;5016787;28;20029;-28
2023/10/10 14:47:07;;;;;;;6.13;3.90;;;;;;;;;;5017099;28;20315;-32
2023/10/10 14:49:38;;;;;;;6.25;4.00;;;;;;;;;;5016861;28;20025;-34
2023/10/10 14:52:04;;;;;;;8.45;3.65;;;;;;;;;;5016996;28;20037;-29
2023/10/10 14:54:37;;;;;;;12.57;4.35;;;;;;;;;;5017575;28;20045;-30
2023/10/10 14:57:03;;;;;;;13.32;4.18;;;;;;;;;;5016748;28;20034;-30
2023/10/10 14:59:33;;;;;;;8.88;3.85;;;;;;;;;;5016659;28;20113;-29
2023/10/10 15:02:00;;;;;;;9.48;4.18;;;;;;;;;;5017046;28;20113;-27
2023/10/10 15:04:28;;;;;;;8.93;3.97;;;;;;;;;;5016857;28;20108;-30
2023/10/10 15:06:55;;;;;;;6.10;3.67;;;;;;;;;;5016894;28;20021;-26
2023/10/10 15:09:24;;;;;;;6.43;3.58;;;;;;;;;;5016440;28;20053;-29
2023/10/10 15:11:51;;;;;;;9.30;4.22;;;;;;;;;;5016634;28;20030;-28
2023/10/10 15:14:19;;;;;;;10.63;4.75;;;;;;;;;;4999257;28;20026;-31
2023/10/10 15:16:49;;;;;;;15.63;4.78;;;;;;;;;;5016579;28;20101;-30
2023/10/10 15:19:15;;;;;;;10.43;3.75;;;;;;;;;;5016726;28;20137;-29
2023/10/10 15:21:47;;;;;;;10.32;4.30;;;;;;;;;;5017061;28;20022;-27
2023/10/10 15:24:14;;;;;;;9.68;4.80;;;;;;;;;;5016211;28;20033;-28
2023/10/10 15:26:48;;;;;;;11.07;4.32;;;;;;;;;;5016359;28;20052;-29
2023/10/10 15:29:17;;;;;;;12.23;4.20;;;;;;;;;;5016056;28;20492;-29
2023/10/10 15:31:43;;;;;;;5.15;3.80;;;;;;;;;;5015968;28;20030;-28
2023/10/10 15:34:11;;;;;;;5.22;4.13;;;;;;;;;;5015932;28;20022;-30
2023/10/10 15:36:38;;;;;;;7.07;4.10;;;;;;;;;;5016220;28;20022;-30
2023/10/10 15:39:06;;;;;;;6.68;3.72;;;;;;;;;;5016481;28;20018;-27
2023/10/10 15:41:34;;;;;;;8.70;3.55;;;;;;;;;;5015900;28;20053;-30
2023/10/10 15:44:03;;;;;;;6.18;3.83;;;;;;;;;;5015760;28;20112;-28
2023/10/10 15:46:37;;;;;;;10.15;4.20;;;;;;;;;;5015774;28;20357;-29
2023/10/10 15:49:09;;;;;;;10.07;5.05;;;;;;;;;;5016003;28;20026;-29
2023/10/10 15:51:38;;;;;;;12.52;3.97;;;;;;;;;;5015874;28;20022;-32
2023/10/10 15:54:07;;;;;;;7.38;3.97;;;;;;;;;;5015727;28;20079;-28
2023/10/10 15:56:33;;;;;;;9.60;4.05;;;;;;;;;;5015925;28;20057;-29
2023/10/10 15:59:00;;;;;;;8.75;3.92;;;;;;;;;;5015926;28;20037;-29
2023/10/10 16:01:28;;;;;;;8.68;4.15;;;;;;;;;;4998141;28;20041;-30
2023/10/10 16:03:55;;;;;;;5.15;4.25;;;;;;;;;;5015380;28;20538;-28
2023/10/10 16:06:22;;;;;;;4.75;3.88;;;;;;;;;;5016042;28;20095;-28
2023/10/10 16:08:49;;;;;;;11.70;4.40;;;;;;;;;;5015413;28;20096;-28
2023/10/10 16:11:19;;;;;;;9.18;3.75;;;;;;;;;;5015745;28;20044;-29
2023/10/10 16:13:46;;;;;;;6.72;3.40;;;;;;;;;;5015515;28;20053;-29
2023/10/10 16:16:17;;;;;;;11.32;5.32;;;;;;;;;;5015258;28;20400;-31
2023/10/10 16:18:45;;;;;;;9.45;4.72;;;;;;;;;;5015189;28;20026;-30
2023/10/10 16:21:13;;;;;;;8.60;3.90;;;;;;;;;;5014866;28;20037;-27
2023/10/10 16:23:43;;;;;;;7.10;4.25;;;;;;;;;;5015006;28;20441;-31
2023/10/10 16:26:10;;;;;;;4.80;3.88;;;;;;;;;;5014992;28;20037;-29
2023/10/10 16:28:37;;;;;;;6.18;3.90;;;;;;;;;;5015857;28;20030;-31
2023/10/10 16:31:06;;;;;;;8.20;4.45;;;;;;;;;;5015145;28;20510;-28
2023/10/10 16:33:37;;;;;;;11.05;4.78;;;;;;;;;;5015068;28;20041;-26
2023/10/10 16:36:19;;;;;;;5.35;4.15;;;;;;;;;;5014948;28;20483;-25
2023/10/10 16:38:45;;;;;;;7.20;3.92;;;;;;;;;;5015120;28;20418;-28
2023/10/10 16:41:12;;;;;;;6.63;3.70;;;;;;;;;;5014785;28;20045;-30
2023/10/10 16:43:38;;;;;;;7.28;4.53;;;;;;;;;;5014717;28;20520;-28
2023/10/10 16:46:12;;;;;;;6.63;3.40;;;;;;;;;;5014763;28;20053;-32
2023/10/10 16:48:40;;;;;;;8.90;3.53;;;;;;;;;;4997704;28;20040;-29
2023/10/10 16:51:12;;;;;;;10.57;4.22;;;;;;;;;;5014898;28;20096;-31
2023/10/10 16:53:42;;;;;;;7.30;4.15;;;;;;;;;;5015205;28;20037;-27
2023/10/10 16:56:09;;;;;;;9.48;4.28;;;;;;;;;;4997985;28;20101;-27
2023/10/10 16:58:38;;;;;;;11.65;4.53;;;;;;;;;;5014636;28;20022;-28
2023/10/10 17:01:05;;;;;;;5.57;4.15;;;;;;;;;;5014630;28;20014;-30
2023/10/10 17:03:32;;;;;;;4.75;3.75;;;;;;;;;;5014487;28;20156;-30
2023/10/10 17:06:01;;;;;;;4.97;4.10;;;;;;;;;;5014770;28;20041;-29
2023/10/10 17:08:31;;;;;;;8.88;3.45;;;;;;;;;;5014608;28;20037;-29
2023/10/10 17:11:01;;;;;;;8.27;3.93;;;;;;;;;;5015250;28;20034;-26
2023/10/10 17:13:29;;;;;;;7.38;3.67;;;;;;;;;;5015043;28;20277;-32
2023/10/10 17:16:00;;;;;;;7.80;3.40;;;;;;;;;;5014976;28;20026;-34
2023/10/10 17:18:27;;;;;;;7.20;3.70;;;;;;;;;;5014389;28;20030;-28
2023/10/10 17:21:03;;;;;;;4.32;3.72;;;;;;;;;;5014334;28;20087;-30
2023/10/10 17:23:29;;;;;;;3.75;3.33;;;;;;;;;;5014663;28;20033;-34
2023/10/10 17:25:58;;;;;;;7.25;3.45;;;;;;;;;;5014712;28;20057;-30
2023/10/10 17:28:27;;;;;;;8.65;3.10;;;;;;;;;;5015197;28;20026;-29
2023/10/10 17:31:01;;;;;;;7.43;3.72;;;;;;;;;;5014793;28;20033;-28
2023/10/10 17:33:33;;;;;;;5.88;4.20;;;;;;;;;;5015732;28;20034;-30
2023/10/10 17:36:00;;;;;;;8.30;3.78;;;;;;;;;;5018460;28;20355;-28
2023/10/10 17:38:27;;;;;;;10.27;3.80;;;;;;;;;;5018412;28;20022;-27
2023/10/10 17:41:03;;;;;;;4.10;3.67;;;;;;;;;;5018080;28;20041;-30